createdAt,value
2018-07-11T00:00:44.126Z,46.90
2018-07-11T00:03:12.684Z,46.90
2018-07-11T00:05:41.197Z,46.80
2018-07-11T00:08:09.595Z,46.90
2018-07-11T00:10:38.643Z,46.90
2018-07-11T00:13:07.269Z,46.80
2018-07-11T00:15:35.862Z,46.80
2018-07-11T00:18:04.228Z,46.70
2018-07-11T00:20:32.661Z,46.70
2018-07-11T00:23:01.026Z,46.80
2018-07-11T00:25:30.174Z,46.80
2018-07-11T00:27:58.728Z,46.80
2018-07-11T00:30:27.144Z,46.90
2018-07-11T00:32:55.940Z,47.50
2018-07-11T00:35:24.344Z,46.90
2018-07-11T00:37:52.884Z,47.60
2018-07-11T00:40:21.743Z,46.90
2018-07-11T00:42:50.304Z,47.00
2018-07-11T00:45:18.874Z,47.00
2018-07-11T00:47:47.444Z,47.00
2018-07-11T00:50:15.840Z,47.00
2018-07-11T00:55:12.338Z,47.10
2018-07-11T00:57:40.753Z,47.00
2018-07-11T01:00:09.359Z,47.00
2018-07-11T01:02:37.758Z,47.10
2018-07-11T01:05:06.324Z,47.10
2018-07-11T01:07:34.690Z,47.10
2018-07-11T01:10:03.648Z,47.00
2018-07-11T01:12:32.510Z,47.00
2018-07-11T01:15:00.883Z,47.00
2018-07-11T01:17:34.870Z,47.00
2018-07-11T01:20:03.286Z,46.90
2018-07-11T01:22:31.761Z,46.90
2018-07-11T01:25:00.141Z,46.90
2018-07-11T01:27:28.488Z,46.90
2018-07-11T01:29:56.990Z,46.90
2018-07-11T01:32:25.397Z,46.90
2018-07-11T01:34:53.754Z,46.90
2018-07-11T01:37:22.122Z,46.90
2018-07-11T01:39:50.484Z,46.90
2018-07-11T01:42:18.860Z,46.90
2018-07-11T01:44:48.398Z,46.90
2018-07-11T01:47:16.763Z,46.90
2018-07-11T01:49:45.156Z,46.80
2018-07-11T01:52:24.980Z,46.70
2018-07-11T01:54:53.379Z,46.70
2018-07-11T01:57:21.739Z,46.80
2018-07-11T01:59:50.121Z,46.80
2018-07-11T02:02:18.485Z,46.80
2018-07-11T02:04:47.108Z,46.80
2018-07-11T02:07:15.660Z,46.80
2018-07-11T02:12:12.311Z,46.80
2018-07-11T02:14:40.812Z,46.80
2018-07-11T02:17:09.186Z,46.70
2018-07-11T02:19:38.145Z,46.70
2018-07-11T02:22:06.538Z,46.70
2018-07-11T02:24:35.065Z,46.70
2018-07-11T02:27:03.441Z,46.80
2018-07-11T02:29:31.854Z,46.70
2018-07-11T02:32:00.606Z,46.70
2018-07-11T02:34:33.512Z,46.70
2018-07-11T02:37:02.320Z,46.80
2018-07-11T02:39:31.031Z,46.90
2018-07-11T02:44:28.546Z,46.90
2018-07-11T02:47:02.273Z,46.90
2018-07-11T02:49:32.452Z,46.90
2018-07-11T02:52:01.576Z,46.90
2018-07-11T02:54:30.305Z,46.90
2018-07-11T02:56:58.856Z,46.90
2018-07-11T02:59:27.260Z,46.80
2018-07-11T03:01:55.672Z,46.80
2018-07-11T03:04:24.305Z,46.80
2018-07-11T03:06:52.786Z,46.80
2018-07-11T03:09:21.268Z,46.80
2018-07-11T03:11:49.695Z,46.70
2018-07-11T03:14:18.213Z,46.80
2018-07-11T03:16:46.741Z,46.80
2018-07-11T03:19:15.621Z,46.70
2018-07-11T03:21:44.424Z,46.70
2018-07-11T03:24:12.788Z,46.70
2018-07-11T03:26:41.271Z,46.70
2018-07-11T03:29:09.631Z,46.70
2018-07-11T03:31:38.186Z,46.70
2018-07-11T03:34:07.121Z,46.70
2018-07-11T03:36:35.705Z,46.70
2018-07-11T03:39:04.899Z,46.70
2018-07-11T03:41:33.563Z,46.70
2018-07-11T03:44:01.988Z,46.70
2018-07-11T03:46:30.620Z,46.60
2018-07-11T03:48:59.710Z,46.60
2018-07-11T03:51:28.428Z,46.60
2018-07-11T03:53:57.036Z,46.60
2018-07-11T03:56:25.942Z,46.60
2018-07-11T03:58:54.612Z,46.60
2018-07-11T04:01:22.972Z,46.60
2018-07-11T04:03:51.652Z,46.60
2018-07-11T04:06:20.003Z,46.50
2018-07-11T04:08:48.365Z,46.50
2018-07-11T04:11:16.812Z,46.50
2018-07-11T04:13:45.217Z,46.50
2018-07-11T04:16:13.610Z,46.50
2018-07-11T04:18:42.057Z,46.50
2018-07-11T04:21:10.432Z,46.50
2018-07-11T04:23:38.961Z,46.50
2018-07-11T04:26:07.472Z,46.50
2018-07-11T04:28:35.880Z,46.50
2018-07-11T04:31:04.236Z,46.40
2018-07-11T04:33:33.328Z,45.80
2018-07-11T04:36:02.017Z,44.90
2018-07-11T04:38:30.416Z,44.20
2018-07-11T04:40:58.767Z,43.30
2018-07-11T04:43:27.285Z,42.60
2018-07-11T04:45:56.300Z,42.00
2018-07-11T04:48:24.688Z,41.30
2018-07-11T04:50:53.046Z,40.60
2018-07-11T04:53:23.999Z,40.10
2018-07-11T04:56:04.967Z,39.60
2018-07-11T04:58:33.813Z,39.20
2018-07-11T05:01:02.374Z,39.70
2018-07-11T05:03:30.879Z,40.00
2018-07-11T05:05:59.855Z,40.60
2018-07-11T05:08:28.297Z,41.00
2018-07-11T05:10:57.005Z,41.40
2018-07-11T05:13:25.260Z,41.80
2018-07-11T05:15:54.408Z,42.10
2018-07-11T05:18:22.866Z,42.40
2018-07-11T05:20:51.340Z,42.60
2018-07-11T05:23:19.746Z,42.80
2018-07-11T05:25:48.268Z,43.10
2018-07-11T05:28:16.632Z,43.30
2018-07-11T05:33:13.900Z,43.80
2018-07-11T05:35:42.372Z,43.90
2018-07-11T05:38:10.793Z,44.20
2018-07-11T05:40:39.429Z,44.30
2018-07-11T05:43:08.036Z,44.60
2018-07-11T05:45:36.417Z,45.50
2018-07-11T05:48:05.022Z,45.00
2018-07-11T05:50:33.413Z,45.00
2018-07-11T05:53:01.840Z,45.10
2018-07-11T05:55:30.259Z,45.20
2018-07-11T05:57:58.631Z,45.30
2018-07-11T06:00:27.258Z,45.30
2018-07-11T06:02:55.667Z,45.30
2018-07-11T06:05:24.114Z,45.40
2018-07-11T06:07:52.637Z,45.60
2018-07-11T06:10:21.185Z,45.80
2018-07-11T06:12:49.808Z,46.10
2018-07-11T06:15:18.402Z,46.60
2018-07-11T06:17:47.165Z,46.10
2018-07-11T06:20:16.481Z,48.80
2018-07-11T06:22:45.292Z,48.10
2018-07-11T06:25:13.747Z,48.00
2018-07-11T06:27:42.407Z,48.80
2018-07-11T06:30:11.092Z,48.30
2018-07-11T06:32:39.630Z,48.00
2018-07-11T06:37:36.370Z,47.40
2018-07-11T06:40:05.022Z,47.20
2018-07-11T06:42:33.564Z,47.10
2018-07-11T06:45:02.033Z,47.10
2018-07-11T06:47:30.847Z,47.00
2018-07-11T06:49:59.342Z,47.00
2018-07-11T06:52:27.921Z,47.50
2018-07-11T06:54:56.560Z,47.30
2018-07-11T06:57:24.978Z,47.20
2018-07-11T06:59:53.592Z,47.00
2018-07-11T07:02:22.243Z,47.00
2018-07-11T07:04:50.745Z,46.90
2018-07-11T07:07:19.749Z,46.70
2018-07-11T07:09:48.253Z,46.70
2018-07-11T07:12:16.997Z,46.60
2018-07-11T07:14:45.563Z,46.50
2018-07-11T07:17:14.227Z,46.40
2018-07-11T07:19:44.129Z,46.40
2018-07-11T07:22:12.763Z,46.30
2018-07-11T07:24:41.768Z,46.20
2018-07-11T07:27:10.349Z,46.10
2018-07-11T07:29:39.007Z,46.00
2018-07-11T07:32:08.179Z,45.80
2018-07-11T07:34:36.910Z,45.80
2018-07-11T07:37:05.361Z,45.70
2018-07-11T07:39:33.959Z,45.70
2018-07-11T07:42:02.938Z,45.70
2018-07-11T07:44:31.521Z,45.60
2018-07-11T07:47:00.858Z,45.50
2018-07-11T07:49:31.161Z,45.40
2018-07-11T07:52:00.870Z,45.20
2018-07-11T07:54:30.037Z,45.20
2018-07-11T07:56:58.568Z,45.10
2018-07-11T07:59:27.425Z,45.10
2018-07-11T08:01:56.818Z,45.00
2018-07-11T08:04:25.303Z,44.90
2018-07-11T08:06:53.775Z,44.90
2018-07-11T08:09:24.370Z,44.70
2018-07-11T08:11:52.840Z,44.60
2018-07-11T08:14:27.304Z,44.50
2018-07-11T08:16:55.916Z,44.50
2018-07-11T08:19:24.487Z,44.50
2018-07-11T08:24:32.388Z,44.40
2018-07-11T08:27:12.948Z,44.30
2018-07-11T08:29:50.630Z,44.30
2018-07-11T08:32:36.047Z,44.30
2018-07-11T08:36:14.589Z,44.30
2018-07-11T08:38:54.467Z,44.20
2018-07-11T08:41:39.008Z,44.10
2018-07-11T08:44:16.897Z,43.90
2018-07-11T08:47:00.229Z,43.70
2018-07-11T08:49:40.005Z,43.30
2018-07-11T08:52:20.256Z,43.10
2018-07-11T08:55:02.672Z,43.00
2018-07-11T08:57:40.009Z,43.20
2018-07-11T09:00:29.425Z,43.00
2018-07-11T09:03:12.169Z,42.90
2018-07-11T09:06:58.683Z,42.70
2018-07-11T09:09:45.995Z,42.50
2018-07-11T09:12:23.181Z,42.40
2018-07-11T09:15:22.058Z,42.10
2018-07-11T09:19:04.244Z,41.90
2018-07-11T09:22:48.321Z,41.70
2018-07-11T09:25:17.077Z,41.50
2018-07-11T09:27:49.020Z,41.60
2018-07-11T09:30:17.978Z,41.50
2018-07-11T09:32:46.550Z,40.80
2018-07-11T09:35:15.060Z,40.20
2018-07-11T09:37:43.688Z,39.60
2018-07-11T09:40:12.601Z,39.10
2018-07-11T09:42:41.673Z,38.70
2018-07-11T09:47:39.670Z,38.70
2018-07-11T09:50:08.481Z,38.10
2018-07-11T09:52:37.547Z,38.60
2018-07-11T09:55:11.482Z,38.60
2018-07-11T09:57:40.671Z,38.60
2018-07-11T10:02:42.155Z,38.80
2018-07-11T10:05:10.557Z,38.90
2018-07-11T10:07:38.946Z,39.10
2018-07-11T10:10:07.999Z,39.10
2018-07-11T10:12:36.404Z,39.20
2018-07-11T10:15:05.127Z,39.20
2018-07-11T10:17:34.061Z,39.70
2018-07-11T10:20:02.721Z,39.20
2018-07-11T10:22:31.769Z,39.20
2018-07-11T10:25:00.274Z,39.20
2018-07-11T10:27:29.552Z,39.30
2018-07-11T10:29:57.964Z,39.30
2018-07-11T10:32:26.504Z,39.20
2018-07-11T10:34:55.037Z,39.30
2018-07-11T10:37:23.652Z,39.50
2018-07-11T10:39:52.057Z,39.50
2018-07-11T10:42:20.840Z,39.20
2018-07-11T10:44:49.357Z,39.20
2018-07-11T10:47:18.185Z,39.20
2018-07-11T10:49:46.599Z,39.20
2018-07-11T10:52:15.775Z,39.20
2018-07-11T10:54:44.157Z,40.10
2018-07-11T10:57:12.707Z,39.30
2018-07-11T10:59:41.737Z,39.40
2018-07-11T11:02:10.926Z,39.50
2018-07-11T11:04:39.336Z,39.50
2018-07-11T11:07:07.762Z,39.40
2018-07-11T11:09:36.804Z,39.30
2018-07-11T11:12:05.537Z,39.40
2018-07-11T11:14:34.151Z,39.30
2018-07-11T11:17:02.799Z,39.40
2018-07-11T11:19:31.348Z,39.50
2018-07-11T11:22:00.086Z,39.50
2018-07-11T11:24:28.809Z,39.50
2018-07-11T11:26:57.333Z,39.60
2018-07-11T11:29:25.943Z,39.60
2018-07-11T11:31:54.385Z,39.70
2018-07-11T11:34:23.082Z,39.80
2018-07-11T11:36:51.632Z,40.30
2018-07-11T11:39:20.772Z,39.80
2018-07-11T11:41:49.511Z,39.90
2018-07-11T11:44:18.284Z,39.80
2018-07-11T11:46:47.150Z,40.00
2018-07-11T11:49:15.745Z,40.10
2018-07-11T11:51:44.224Z,40.20
2018-07-11T11:54:12.776Z,40.20
2018-07-11T11:56:41.169Z,40.10
2018-07-11T11:59:09.663Z,40.10
2018-07-11T12:01:38.686Z,40.00
2018-07-11T12:04:07.903Z,40.10
2018-07-11T12:06:36.519Z,40.20
2018-07-11T12:09:05.086Z,40.20
2018-07-11T12:11:33.594Z,40.20
2018-07-11T12:14:01.996Z,40.10
2018-07-11T12:16:30.613Z,40.10
2018-07-11T12:18:59.549Z,40.10
2018-07-11T12:21:28.186Z,40.10
2018-07-11T12:23:56.872Z,40.20
2018-07-11T12:26:26.224Z,40.20
2018-07-11T12:28:54.725Z,40.20
2018-07-11T12:31:23.123Z,40.20
2018-07-11T12:33:51.782Z,40.20
2018-07-11T12:36:20.224Z,40.20
2018-07-11T12:38:53.300Z,40.10
2018-07-11T12:41:22.353Z,40.80
2018-07-11T12:43:51.201Z,40.10
2018-07-11T12:46:19.834Z,40.00
2018-07-11T12:48:54.354Z,40.00
2018-07-11T12:51:22.920Z,40.00
2018-07-11T12:53:51.469Z,39.90
2018-07-11T12:56:20.053Z,40.00
2018-07-11T12:58:48.438Z,39.90
2018-07-11T13:01:16.876Z,39.80
2018-07-11T13:03:45.872Z,39.90
2018-07-11T13:06:14.560Z,40.00
2018-07-11T13:08:43.242Z,40.00
2018-07-11T13:11:12.078Z,40.10
2018-07-11T13:13:40.471Z,40.20
2018-07-11T13:16:08.946Z,40.20
2018-07-11T13:18:37.831Z,40.30
2018-07-11T13:21:06.275Z,40.30
2018-07-11T13:26:03.030Z,40.40
2018-07-11T13:28:31.799Z,40.30
2018-07-11T13:31:00.204Z,40.30
2018-07-11T13:33:29.146Z,40.40
2018-07-11T13:35:57.717Z,40.40
2018-07-11T13:38:26.141Z,40.30
2018-07-11T13:40:54.780Z,40.20
2018-07-11T13:43:24.181Z,40.30
2018-07-11T13:45:52.686Z,40.20
2018-07-11T13:48:21.174Z,39.90
2018-07-11T13:50:49.865Z,39.70
2018-07-11T13:53:19.070Z,39.60
2018-07-11T13:55:47.823Z,39.60
2018-07-11T13:58:16.399Z,39.60
2018-07-11T14:00:44.813Z,39.60
2018-07-11T14:03:13.684Z,39.50
2018-07-11T14:05:42.169Z,39.50
2018-07-11T14:08:11.731Z,39.40
2018-07-11T14:10:40.173Z,39.50
2018-07-11T14:13:08.822Z,39.50
2018-07-11T14:15:37.283Z,39.50
2018-07-11T14:18:06.401Z,39.60
2018-07-11T14:20:34.912Z,39.60
2018-07-11T14:23:07.835Z,39.60
2018-07-11T14:25:39.958Z,39.70
2018-07-11T14:28:08.869Z,39.60
2018-07-11T14:30:39.041Z,40.20
2018-07-11T14:33:09.496Z,39.60
2018-07-11T14:35:38.929Z,39.60
2018-07-11T14:38:07.972Z,39.60
2018-07-11T14:40:37.040Z,39.60
2018-07-11T14:43:06.475Z,39.60
2018-07-11T14:48:09.364Z,39.60
2018-07-11T14:50:38.087Z,39.70
2018-07-11T14:53:06.881Z,39.70
2018-07-11T14:55:35.621Z,39.80
2018-07-11T14:58:04.353Z,39.70
2018-07-11T15:00:35.009Z,40.30
2018-07-11T15:03:03.756Z,39.60
2018-07-11T15:05:32.253Z,39.50
2018-07-11T15:08:00.901Z,39.50
2018-07-11T15:10:29.497Z,39.50
2018-07-11T15:12:57.918Z,39.50
2018-07-11T15:15:26.376Z,39.60
2018-07-11T15:17:55.732Z,39.50
2018-07-11T15:20:24.251Z,39.40
2018-07-11T15:22:54.037Z,39.40
2018-07-11T15:25:22.615Z,39.50
2018-07-11T15:27:51.144Z,39.50
2018-07-11T15:30:20.208Z,39.60
2018-07-11T15:32:48.780Z,39.70
2018-07-11T15:35:17.467Z,39.70
2018-07-11T15:37:45.975Z,39.70
2018-07-11T15:40:14.642Z,39.80
2018-07-11T15:42:44.581Z,39.70
2018-07-11T15:45:13.117Z,39.80
2018-07-11T15:47:44.483Z,39.80
2018-07-11T15:50:13.996Z,39.70
2018-07-11T15:52:42.615Z,39.70
2018-07-11T15:55:12.462Z,39.70
2018-07-11T15:57:51.633Z,39.70
2018-07-11T16:00:29.355Z,39.70
2018-07-11T16:02:59.473Z,39.80
2018-07-11T16:05:30.366Z,39.80
2018-07-11T16:08:03.696Z,39.80
2018-07-11T16:13:07.413Z,39.70
2018-07-11T16:15:36.244Z,39.70
2018-07-11T16:18:06.005Z,39.80
2018-07-11T16:20:35.232Z,39.80
2018-07-11T16:23:10.117Z,39.80
2018-07-11T16:25:40.591Z,39.90
2018-07-11T16:28:09.880Z,39.90
2018-07-11T16:30:38.268Z,40.00
2018-07-11T16:33:06.740Z,40.10
2018-07-11T16:35:35.120Z,40.00
2018-07-11T16:38:07.677Z,40.10
2018-07-11T16:43:05.669Z,40.10
2018-07-11T16:45:34.309Z,40.10
2018-07-11T16:48:03.032Z,40.20
2018-07-11T16:50:31.519Z,40.20
2018-07-11T16:53:00.257Z,40.30
2018-07-11T16:55:30.147Z,40.30
2018-07-11T16:57:58.792Z,40.30
2018-07-11T17:00:29.673Z,40.30
2018-07-11T17:03:01.591Z,40.30
2018-07-11T17:05:39.242Z,40.40
2018-07-11T17:08:07.682Z,40.50
2018-07-11T17:10:36.409Z,40.50
2018-07-11T17:13:12.034Z,40.40
2018-07-11T17:15:45.515Z,40.60
2018-07-11T17:18:18.301Z,40.60
2018-07-11T17:20:46.900Z,40.60
2018-07-11T17:23:16.495Z,40.70
2018-07-11T17:25:45.013Z,40.70
2018-07-11T17:28:13.634Z,40.60
2018-07-11T17:30:43.573Z,40.80
2018-07-11T17:33:13.079Z,40.80
2018-07-11T17:35:50.988Z,40.80
2018-07-11T17:38:23.612Z,40.90
2018-07-11T17:40:52.110Z,41.60
2018-07-11T17:43:21.735Z,41.00
2018-07-11T17:45:51.872Z,41.00
2018-07-11T17:48:27.012Z,41.10
2018-07-11T17:51:02.245Z,41.20
2018-07-11T17:53:37.085Z,41.20
2018-07-11T17:56:12.447Z,41.30
2018-07-11T17:58:58.021Z,41.40
2018-07-11T18:01:45.620Z,41.40
2018-07-11T18:05:26.213Z,41.50
2018-07-11T18:07:56.152Z,41.50
2018-07-11T18:10:32.540Z,41.70
2018-07-11T18:13:12.469Z,41.80
2018-07-11T18:15:49.267Z,41.90
2018-07-11T18:18:26.379Z,41.90
2018-07-11T18:21:09.443Z,41.90
2018-07-11T18:23:46.878Z,41.90
2018-07-11T18:26:24.761Z,41.90
2018-07-11T18:29:35.942Z,42.10
2018-07-11T18:33:11.470Z,42.10
2018-07-11T18:37:50.489Z,42.10
2018-07-11T18:40:36.236Z,42.30
2018-07-11T18:43:16.009Z,42.70
2018-07-11T18:45:56.474Z,42.90
2018-07-11T18:48:36.704Z,43.00
2018-07-11T18:53:21.385Z,43.00
2018-07-11T18:56:59.924Z,43.00
2018-07-11T19:00:42.258Z,43.10
2018-07-11T19:06:49.253Z,43.60
2018-07-11T19:09:29.928Z,43.60
2018-07-11T19:12:03.608Z,43.60
2018-07-11T19:14:40.908Z,43.70
2018-07-11T19:18:23.324Z,43.70
2018-07-11T19:21:00.600Z,43.70
2018-07-11T19:23:41.964Z,43.70
2018-07-11T19:26:21.554Z,43.90
2018-07-11T19:29:04.054Z,44.00
2018-07-11T19:31:41.529Z,44.00
2018-07-11T19:34:20.228Z,44.10
2018-07-11T19:37:00.094Z,44.80
2018-07-11T19:39:34.184Z,44.20
2018-07-11T19:43:13.335Z,44.40
2018-07-11T19:45:54.764Z,44.40
2018-07-11T19:48:37.906Z,44.70
2018-07-11T19:52:17.717Z,44.80
2018-07-11T19:55:17.427Z,44.90
2018-07-11T19:57:45.862Z,45.00
2018-07-11T20:00:14.282Z,45.10
2018-07-11T20:02:43.076Z,45.40
2018-07-11T20:05:11.654Z,45.40
2018-07-11T20:07:40.074Z,45.40
2018-07-11T20:10:08.983Z,45.50
2018-07-11T20:12:38.563Z,45.70
2018-07-11T20:15:07.565Z,46.00
2018-07-11T20:17:36.174Z,46.20
2018-07-11T20:20:06.453Z,46.40
2018-07-11T20:22:34.860Z,46.50
2018-07-11T20:25:03.388Z,46.70
2018-07-11T20:27:32.254Z,46.60
2018-07-11T20:30:00.700Z,46.80
2018-07-11T20:32:29.891Z,47.00
2018-07-11T20:34:58.293Z,47.10
2018-07-11T20:37:27.107Z,47.50
2018-07-11T20:39:56.673Z,46.90
2018-07-11T20:42:25.272Z,46.90
2018-07-11T20:44:55.974Z,47.10
2018-07-11T20:47:24.914Z,47.00
2018-07-11T20:49:53.331Z,46.80
2018-07-11T20:52:26.552Z,46.60
2018-07-11T20:54:55.348Z,46.70
2018-07-11T20:57:24.342Z,46.60
2018-07-11T21:00:04.477Z,46.60
2018-07-11T21:02:44.268Z,46.50
2018-07-11T21:05:24.081Z,46.80
2018-07-11T21:08:22.790Z,46.50
2018-07-11T21:11:03.567Z,46.50
2018-07-11T21:13:44.860Z,46.50
2018-07-11T21:24:39.794Z,46.50
2018-07-11T21:27:22.759Z,46.40
2018-07-11T21:29:51.264Z,46.70
2018-07-11T21:32:19.796Z,47.40
2018-07-11T21:34:48.339Z,46.60
2018-07-11T21:37:25.831Z,46.60
2018-07-11T21:39:58.325Z,46.60
2018-07-11T21:42:32.480Z,46.60
2018-07-11T21:45:01.454Z,46.60
2018-07-11T21:47:30.427Z,46.70
2018-07-11T21:49:59.134Z,46.90
2018-07-11T21:52:28.419Z,47.20
2018-07-11T21:54:56.981Z,47.40
2018-07-11T21:57:25.820Z,47.50
2018-07-11T21:59:54.324Z,47.60
2018-07-11T22:02:22.858Z,47.60
2018-07-11T22:04:51.827Z,47.60
2018-07-11T22:07:20.312Z,47.70
2018-07-11T22:09:48.975Z,47.80
2018-07-11T22:12:18.271Z,47.80
2018-07-11T22:14:46.917Z,47.70
2018-07-11T22:17:27.972Z,47.60
2018-07-11T22:19:55.310Z,47.50
2018-07-11T22:22:22.599Z,47.50
2018-07-11T22:24:51.600Z,47.50
2018-07-11T22:27:19.388Z,47.50
2018-07-11T22:29:47.266Z,47.40
2018-07-11T22:32:21.055Z,48.20
2018-07-11T22:34:49.211Z,47.40
2018-07-11T22:37:16.732Z,47.30
2018-07-11T22:39:47.812Z,47.20
2018-07-11T22:42:19.034Z,47.30
2018-07-11T22:44:46.332Z,47.30
2018-07-11T22:47:13.648Z,47.40
2018-07-11T22:49:45.843Z,47.40
2018-07-11T22:52:14.554Z,47.40
2018-07-11T22:54:42.090Z,47.40
2018-07-11T22:57:09.726Z,47.30
2018-07-11T22:59:37.688Z,47.40
2018-07-11T23:02:05.284Z,47.30
2018-07-11T23:04:32.871Z,47.30
2018-07-11T23:07:00.454Z,47.30
2018-07-11T23:09:28.648Z,47.40
2018-07-11T23:11:55.997Z,47.30
2018-07-11T23:14:23.285Z,47.30
2018-07-11T23:16:52.862Z,47.40
2018-07-11T23:19:20.193Z,47.40
2018-07-11T23:21:48.103Z,47.40
2018-07-11T23:24:15.582Z,47.40
2018-07-11T23:26:43.156Z,48.00
2018-07-11T23:29:10.825Z,47.40
2018-07-11T23:34:06.318Z,47.40
2018-07-11T23:36:34.736Z,47.40
2018-07-11T23:39:02.052Z,47.40
2018-07-11T23:41:29.354Z,47.40
2018-07-11T23:43:56.664Z,47.40
2018-07-11T23:46:23.966Z,47.50
2018-07-11T23:48:51.342Z,47.40
2018-07-11T23:51:18.638Z,47.40
2018-07-11T23:53:45.921Z,47.40
2018-07-11T23:56:13.320Z,47.50
2018-07-11T23:58:40.901Z,48.10
